sensor_id;sensor_type;location;lat;lon;timestamp;P1;durP1;ratioP1;P2;durP2;ratioP2
19842;SDS011;10082;51.038;6.992;2024-02-21T00:01:22;11.93;;;5.63;;
19842;SDS011;10082;51.038;6.992;2024-02-21T00:03:49;9.20;;;5.22;;
19842;SDS011;10082;51.038;6.992;2024-02-21T00:06:18;14.18;;;6.20;;
19842;SDS011;10082;51.038;6.992;2024-02-21T00:08:45;10.32;;;6.15;;
19842;SDS011;10082;51.038;6.992;2024-02-21T00:11:12;9.77;;;5.80;;
19842;SDS011;10082;51.038;6.992;2024-02-21T00:13:39;12.35;;;6.05;;
19842;SDS011;10082;51.038;6.992;2024-02-21T00:16:06;8.80;;;5.63;;
19842;SDS011;10082;51.038;6.992;2024-02-21T00:18:33;9.43;;;5.68;;
19842;SDS011;10082;51.038;6.992;2024-02-21T00:21:00;8.73;;;5.47;;
19842;SDS011;10082;51.038;6.992;2024-02-21T00:23:29;12.57;;;6.35;;
19842;SDS011;10082;51.038;6.992;2024-02-21T00:25:56;10.98;;;6.70;;
19842;SDS011;10082;51.038;6.992;2024-02-21T00:28:23;9.88;;;6.20;;
19842;SDS011;10082;51.038;6.992;2024-02-21T00:30:51;10.98;;;6.00;;
19842;SDS011;10082;51.038;6.992;2024-02-21T00:33:18;12.32;;;6.43;;
19842;SDS011;10082;51.038;6.992;2024-02-21T00:35:45;9.70;;;6.07;;
19842;SDS011;10082;51.038;6.992;2024-02-21T00:38:13;10.75;;;6.00;;
19842;SDS011;10082;51.038;6.992;2024-02-21T00:40:41;10.45;;;6.10;;
19842;SDS011;10082;51.038;6.992;2024-02-21T00:43:09;11.50;;;6.90;;
19842;SDS011;10082;51.038;6.992;2024-02-21T00:45:37;11.43;;;6.47;;
19842;SDS011;10082;51.038;6.992;2024-02-21T00:48:04;13.00;;;7.25;;
19842;SDS011;10082;51.038;6.992;2024-02-21T00:50:32;12.18;;;6.68;;
19842;SDS011;10082;51.038;6.992;2024-02-21T00:52:59;11.48;;;7.18;;
19842;SDS011;10082;51.038;6.992;2024-02-21T00:55:26;12.38;;;7.38;;
19842;SDS011;10082;51.038;6.992;2024-02-21T00:57:56;11.05;;;7.00;;
19842;SDS011;10082;51.038;6.992;2024-02-21T01:00:23;9.90;;;6.93;;
19842;SDS011;10082;51.038;6.992;2024-02-21T01:02:50;14.63;;;7.22;;
19842;SDS011;10082;51.038;6.992;2024-02-21T01:05:17;10.40;;;6.47;;
19842;SDS011;10082;51.038;6.992;2024-02-21T01:07:44;9.40;;;6.43;;
19842;SDS011;10082;51.038;6.992;2024-02-21T01:10:11;11.30;;;6.90;;
19842;SDS011;10082;51.038;6.992;2024-02-21T01:12:38;10.20;;;6.28;;
19842;SDS011;10082;51.038;6.992;2024-02-21T01:15:07;12.25;;;6.68;;
19842;SDS011;10082;51.038;6.992;2024-02-21T01:17:35;13.15;;;6.90;;
19842;SDS011;10082;51.038;6.992;2024-02-21T01:22:38;8.60;;;5.90;;
19842;SDS011;10082;51.038;6.992;2024-02-21T01:25:06;10.35;;;6.22;;
19842;SDS011;10082;51.038;6.992;2024-02-21T01:27:34;10.07;;;6.60;;
19842;SDS011;10082;51.038;6.992;2024-02-21T01:30:01;11.98;;;6.57;;
19842;SDS011;10082;51.038;6.992;2024-02-21T01:32:30;15.18;;;6.25;;
19842;SDS011;10082;51.038;6.992;2024-02-21T01:34:57;10.70;;;5.82;;
19842;SDS011;10082;51.038;6.992;2024-02-21T01:37:24;11.60;;;6.38;;
19842;SDS011;10082;51.038;6.992;2024-02-21T01:39:51;10.10;;;5.95;;
19842;SDS011;10082;51.038;6.992;2024-02-21T01:42:21;13.80;;;7.03;;
19842;SDS011;10082;51.038;6.992;2024-02-21T01:44:48;9.85;;;5.97;;
19842;SDS011;10082;51.038;6.992;2024-02-21T01:47:16;11.85;;;6.28;;
19842;SDS011;10082;51.038;6.992;2024-02-21T01:49:45;13.57;;;6.75;;
19842;SDS011;10082;51.038;6.992;2024-02-21T01:52:12;11.02;;;6.00;;
19842;SDS011;10082;51.038;6.992;2024-02-21T01:54:42;10.90;;;6.20;;
19842;SDS011;10082;51.038;6.992;2024-02-21T01:57:10;11.70;;;6.35;;
19842;SDS011;10082;51.038;6.992;2024-02-21T01:59:38;11.20;;;6.22;;
19842;SDS011;10082;51.038;6.992;2024-02-21T02:02:05;13.70;;;7.03;;
19842;SDS011;10082;51.038;6.992;2024-02-21T02:04:35;10.70;;;6.28;;
19842;SDS011;10082;51.038;6.992;2024-02-21T02:07:06;11.80;;;6.63;;
19842;SDS011;10082;51.038;6.992;2024-02-21T02:09:34;10.00;;;6.10;;
19842;SDS011;10082;51.038;6.992;2024-02-21T02:12:01;14.43;;;6.88;;
19842;SDS011;10082;51.038;6.992;2024-02-21T02:14:28;8.63;;;5.90;;
19842;SDS011;10082;51.038;6.992;2024-02-21T02:16:55;11.38;;;6.10;;
19842;SDS011;10082;51.038;6.992;2024-02-21T02:19:22;11.70;;;6.45;;
19842;SDS011;10082;51.038;6.992;2024-02-21T02:21:50;14.45;;;6.43;;
19842;SDS011;10082;51.038;6.992;2024-02-21T02:24:24;10.73;;;6.25;;
19842;SDS011;10082;51.038;6.992;2024-02-21T02:26:54;7.38;;;5.82;;
19842;SDS011;10082;51.038;6.992;2024-02-21T02:29:21;13.90;;;6.60;;
19842;SDS011;10082;51.038;6.992;2024-02-21T02:31:48;9.10;;;6.13;;
19842;SDS011;10082;51.038;6.992;2024-02-21T02:34:15;10.00;;;6.28;;
19842;SDS011;10082;51.038;6.992;2024-02-21T02:36:42;13.00;;;7.20;;
19842;SDS011;10082;51.038;6.992;2024-02-21T02:39:09;10.13;;;6.65;;
19842;SDS011;10082;51.038;6.992;2024-02-21T02:41:38;10.82;;;6.68;;
19842;SDS011;10082;51.038;6.992;2024-02-21T02:44:05;11.45;;;6.68;;
19842;SDS011;10082;51.038;6.992;2024-02-21T02:46:32;10.15;;;6.03;;
19842;SDS011;10082;51.038;6.992;2024-02-21T02:49:02;11.40;;;6.55;;
19842;SDS011;10082;51.038;6.992;2024-02-21T02:51:29;11.82;;;6.30;;
19842;SDS011;10082;51.038;6.992;2024-02-21T02:53:57;10.63;;;6.60;;
19842;SDS011;10082;51.038;6.992;2024-02-21T02:56:23;8.52;;;5.93;;
19842;SDS011;10082;51.038;6.992;2024-02-21T02:58:52;10.88;;;6.25;;
19842;SDS011;10082;51.038;6.992;2024-02-21T03:01:19;10.00;;;6.00;;
19842;SDS011;10082;51.038;6.992;2024-02-21T03:03:46;10.10;;;6.30;;
19842;SDS011;10082;51.038;6.992;2024-02-21T03:06:13;10.38;;;5.85;;
19842;SDS011;10082;51.038;6.992;2024-02-21T03:08:40;11.68;;;6.10;;
19842;SDS011;10082;51.038;6.992;2024-02-21T03:11:11;10.25;;;5.78;;
19842;SDS011;10082;51.038;6.992;2024-02-21T03:13:38;9.73;;;5.35;;
19842;SDS011;10082;51.038;6.992;2024-02-21T03:16:07;10.23;;;5.78;;
19842;SDS011;10082;51.038;6.992;2024-02-21T03:18:34;10.02;;;5.70;;
19842;SDS011;10082;51.038;6.992;2024-02-21T03:21:03;12.57;;;5.57;;
19842;SDS011;10082;51.038;6.992;2024-02-21T03:23:30;12.82;;;6.75;;
19842;SDS011;10082;51.038;6.992;2024-02-21T03:25:57;11.55;;;7.13;;
19842;SDS011;10082;51.038;6.992;2024-02-21T03:28:24;13.07;;;6.60;;
19842;SDS011;10082;51.038;6.992;2024-02-21T03:30:52;12.48;;;5.80;;
19842;SDS011;10082;51.038;6.992;2024-02-21T03:33:22;8.35;;;5.68;;
19842;SDS011;10082;51.038;6.992;2024-02-21T03:35:49;12.10;;;6.03;;
19842;SDS011;10082;51.038;6.992;2024-02-21T03:38:16;9.70;;;5.60;;
19842;SDS011;10082;51.038;6.992;2024-02-21T03:40:43;11.05;;;5.65;;
19842;SDS011;10082;51.038;6.992;2024-02-21T03:43:10;9.65;;;5.10;;
19842;SDS011;10082;51.038;6.992;2024-02-21T03:45:37;12.13;;;5.15;;
19842;SDS011;10082;51.038;6.992;2024-02-21T03:48:04;8.38;;;5.32;;
19842;SDS011;10082;51.038;6.992;2024-02-21T03:50:34;11.20;;;5.50;;
19842;SDS011;10082;51.038;6.992;2024-02-21T03:53:00;7.78;;;5.15;;
19842;SDS011;10082;51.038;6.992;2024-02-21T03:55:31;9.95;;;4.80;;
19842;SDS011;10082;51.038;6.992;2024-02-21T03:57:57;8.30;;;4.93;;
19842;SDS011;10082;51.038;6.992;2024-02-21T04:00:24;8.45;;;4.97;;
19842;SDS011;10082;51.038;6.992;2024-02-21T04:02:51;10.98;;;5.40;;
19842;SDS011;10082;51.038;6.992;2024-02-21T04:05:18;8.48;;;4.60;;
19842;SDS011;10082;51.038;6.992;2024-02-21T04:07:47;9.88;;;5.07;;
19842;SDS011;10082;51.038;6.992;2024-02-21T04:10:15;10.07;;;4.65;;
19842;SDS011;10082;51.038;6.992;2024-02-21T04:12:42;8.68;;;5.05;;
19842;SDS011;10082;51.038;6.992;2024-02-21T04:15:09;10.05;;;4.32;;
19842;SDS011;10082;51.038;6.992;2024-02-21T04:17:36;9.68;;;4.47;;
19842;SDS011;10082;51.038;6.992;2024-02-21T04:20:03;6.65;;;4.07;;
19842;SDS011;10082;51.038;6.992;2024-02-21T04:22:34;9.32;;;4.95;;
19842;SDS011;10082;51.038;6.992;2024-02-21T04:25:03;8.20;;;4.75;;
19842;SDS011;10082;51.038;6.992;2024-02-21T04:27:30;7.47;;;4.50;;
19842;SDS011;10082;51.038;6.992;2024-02-21T04:29:57;5.43;;;4.68;;
19842;SDS011;10082;51.038;6.992;2024-02-21T04:32:24;7.82;;;4.65;;
19842;SDS011;10082;51.038;6.992;2024-02-21T04:34:52;7.18;;;4.40;;
19842;SDS011;10082;51.038;6.992;2024-02-21T04:37:29;8.98;;;4.55;;
19842;SDS011;10082;51.038;6.992;2024-02-21T04:39:56;7.20;;;4.70;;
19842;SDS011;10082;51.038;6.992;2024-02-21T04:42:24;10.45;;;4.45;;
19842;SDS011;10082;51.038;6.992;2024-02-21T04:44:51;8.02;;;4.63;;
19842;SDS011;10082;51.038;6.992;2024-02-21T04:47:18;9.30;;;4.50;;
19842;SDS011;10082;51.038;6.992;2024-02-21T04:49:46;10.02;;;5.05;;
19842;SDS011;10082;51.038;6.992;2024-02-21T04:52:13;7.38;;;4.38;;
19842;SDS011;10082;51.038;6.992;2024-02-21T04:54:40;8.27;;;4.82;;
19842;SDS011;10082;51.038;6.992;2024-02-21T04:57:07;7.97;;;4.82;;
19842;SDS011;10082;51.038;6.992;2024-02-21T04:59:37;9.48;;;4.80;;
19842;SDS011;10082;51.038;6.992;2024-02-21T05:02:04;11.63;;;5.03;;
19842;SDS011;10082;51.038;6.992;2024-02-21T05:04:31;8.63;;;4.70;;
19842;SDS011;10082;51.038;6.992;2024-02-21T05:06:59;10.85;;;5.03;;
19842;SDS011;10082;51.038;6.992;2024-02-21T05:09:26;7.70;;;4.82;;
19842;SDS011;10082;51.038;6.992;2024-02-21T05:11:53;9.57;;;5.63;;
19842;SDS011;10082;51.038;6.992;2024-02-21T05:14:20;12.55;;;5.72;;
19842;SDS011;10082;51.038;6.992;2024-02-21T05:16:49;8.48;;;4.95;;
19842;SDS011;10082;51.038;6.992;2024-02-21T05:19:16;9.43;;;5.60;;
19842;SDS011;10082;51.038;6.992;2024-02-21T05:21:43;10.70;;;5.75;;
19842;SDS011;10082;51.038;6.992;2024-02-21T05:24:10;10.73;;;5.78;;
19842;SDS011;10082;51.038;6.992;2024-02-21T05:26:37;10.63;;;6.13;;
19842;SDS011;10082;51.038;6.992;2024-02-21T05:29:04;9.10;;;5.50;;
19842;SDS011;10082;51.038;6.992;2024-02-21T05:31:42;9.48;;;5.53;;
19842;SDS011;10082;51.038;6.992;2024-02-21T05:34:23;8.55;;;5.07;;
19842;SDS011;10082;51.038;6.992;2024-02-21T05:36:51;11.65;;;6.25;;
19842;SDS011;10082;51.038;6.992;2024-02-21T05:39:19;11.18;;;6.65;;
19842;SDS011;10082;51.038;6.992;2024-02-21T05:41:48;9.07;;;6.63;;
19842;SDS011;10082;51.038;6.992;2024-02-21T05:44:15;11.75;;;6.80;;
19842;SDS011;10082;51.038;6.992;2024-02-21T05:46:43;12.30;;;6.47;;
19842;SDS011;10082;51.038;6.992;2024-02-21T05:49:12;10.20;;;5.72;;
19842;SDS011;10082;51.038;6.992;2024-02-21T05:51:39;10.77;;;5.85;;
19842;SDS011;10082;51.038;6.992;2024-02-21T05:54:06;10.65;;;5.68;;
19842;SDS011;10082;51.038;6.992;2024-02-21T05:56:34;8.60;;;5.15;;
19842;SDS011;10082;51.038;6.992;2024-02-21T05:59:01;9.85;;;5.15;;
19842;SDS011;10082;51.038;6.992;2024-02-21T06:01:28;9.77;;;5.28;;
19842;SDS011;10082;51.038;6.992;2024-02-21T06:04:00;7.10;;;4.35;;
19842;SDS011;10082;51.038;6.992;2024-02-21T06:06:29;9.13;;;4.40;;
19842;SDS011;10082;51.038;6.992;2024-02-21T06:08:56;10.13;;;5.25;;
19842;SDS011;10082;51.038;6.992;2024-02-21T06:11:24;7.72;;;4.80;;
19842;SDS011;10082;51.038;6.992;2024-02-21T06:13:51;7.60;;;4.43;;
19842;SDS011;10082;51.038;6.992;2024-02-21T06:16:18;6.13;;;4.00;;
19842;SDS011;10082;51.038;6.992;2024-02-21T06:18:45;8.30;;;4.50;;
19842;SDS011;10082;51.038;6.992;2024-02-21T06:21:12;5.72;;;4.68;;
19842;SDS011;10082;51.038;6.992;2024-02-21T06:23:43;6.57;;;4.18;;
19842;SDS011;10082;51.038;6.992;2024-02-21T06:26:10;7.28;;;4.80;;
19842;SDS011;10082;51.038;6.992;2024-02-21T06:28:38;7.70;;;4.50;;
19842;SDS011;10082;51.038;6.992;2024-02-21T06:31:05;10.00;;;5.55;;
19842;SDS011;10082;51.038;6.992;2024-02-21T06:33:32;7.22;;;4.35;;
19842;SDS011;10082;51.038;6.992;2024-02-21T06:35:59;7.80;;;4.80;;
19842;SDS011;10082;51.038;6.992;2024-02-21T06:38:26;5.78;;;4.22;;
19842;SDS011;10082;51.038;6.992;2024-02-21T06:40:55;5.95;;;4.07;;
19842;SDS011;10082;51.038;6.992;2024-02-21T06:43:23;5.95;;;4.10;;
19842;SDS011;10082;51.038;6.992;2024-02-21T06:45:51;7.57;;;4.93;;
19842;SDS011;10082;51.038;6.992;2024-02-21T06:48:19;7.35;;;3.85;;
19842;SDS011;10082;51.038;6.992;2024-02-21T06:50:46;6.05;;;4.05;;
19842;SDS011;10082;51.038;6.992;2024-02-21T06:53:13;9.57;;;4.50;;
19842;SDS011;10082;51.038;6.992;2024-02-21T06:55:40;8.48;;;4.40;;
19842;SDS011;10082;51.038;6.992;2024-02-21T06:58:09;5.47;;;4.05;;
19842;SDS011;10082;51.038;6.992;2024-02-21T07:00:38;7.45;;;4.25;;
19842;SDS011;10082;51.038;6.992;2024-02-21T07:03:05;6.82;;;4.03;;
19842;SDS011;10082;51.038;6.992;2024-02-21T07:05:32;7.72;;;4.72;;
19842;SDS011;10082;51.038;6.992;2024-02-21T07:07:59;7.28;;;4.30;;
19842;SDS011;10082;51.038;6.992;2024-02-21T07:10:27;7.88;;;5.05;;
19842;SDS011;10082;51.038;6.992;2024-02-21T07:12:55;7.10;;;5.35;;
19842;SDS011;10082;51.038;6.992;2024-02-21T07:15:23;9.63;;;5.45;;
19842;SDS011;10082;51.038;6.992;2024-02-21T07:17:53;10.27;;;5.32;;
19842;SDS011;10082;51.038;6.992;2024-02-21T07:20:20;10.73;;;5.22;;
19842;SDS011;10082;51.038;6.992;2024-02-21T07:22:47;7.20;;;4.70;;
19842;SDS011;10082;51.038;6.992;2024-02-21T07:25:14;8.68;;;5.30;;
19842;SDS011;10082;51.038;6.992;2024-02-21T07:27:42;8.75;;;5.45;;
19842;SDS011;10082;51.038;6.992;2024-02-21T07:30:11;9.90;;;5.57;;
19842;SDS011;10082;51.038;6.992;2024-02-21T07:32:40;9.32;;;5.07;;
19842;SDS011;10082;51.038;6.992;2024-02-21T07:35:07;8.60;;;4.70;;
19842;SDS011;10082;51.038;6.992;2024-02-21T07:37:36;8.15;;;4.65;;
19842;SDS011;10082;51.038;6.992;2024-02-21T07:40:05;8.80;;;5.00;;
19842;SDS011;10082;51.038;6.992;2024-02-21T07:42:32;7.93;;;5.00;;
19842;SDS011;10082;51.038;6.992;2024-02-21T07:45:00;7.05;;;5.07;;
19842;SDS011;10082;51.038;6.992;2024-02-21T07:47:28;7.88;;;5.18;;
19842;SDS011;10082;51.038;6.992;2024-02-21T07:49:57;7.75;;;4.88;;
19842;SDS011;10082;51.038;6.992;2024-02-21T07:52:24;5.35;;;4.00;;
19842;SDS011;10082;51.038;6.992;2024-02-21T07:54:51;10.35;;;5.05;;
19842;SDS011;10082;51.038;6.992;2024-02-21T07:57:18;8.32;;;4.47;;
19842;SDS011;10082;51.038;6.992;2024-02-21T07:59:46;7.18;;;4.72;;
19842;SDS011;10082;51.038;6.992;2024-02-21T08:02:13;7.88;;;4.85;;
19842;SDS011;10082;51.038;6.992;2024-02-21T08:04:40;5.43;;;3.88;;
19842;SDS011;10082;51.038;6.992;2024-02-21T08:07:09;6.50;;;4.32;;
19842;SDS011;10082;51.038;6.992;2024-02-21T08:09:36;8.48;;;4.30;;
19842;SDS011;10082;51.038;6.992;2024-02-21T08:12:06;7.25;;;4.40;;
19842;SDS011;10082;51.038;6.992;2024-02-21T08:14:33;7.25;;;4.82;;
19842;SDS011;10082;51.038;6.992;2024-02-21T08:17:00;8.15;;;4.45;;
19842;SDS011;10082;51.038;6.992;2024-02-21T08:19:29;6.05;;;4.05;;
19842;SDS011;10082;51.038;6.992;2024-02-21T08:21:56;9.75;;;5.03;;
19842;SDS011;10082;51.038;6.992;2024-02-21T08:24:24;5.95;;;3.92;;
19842;SDS011;10082;51.038;6.992;2024-02-21T08:26:51;6.28;;;4.15;;
19842;SDS011;10082;51.038;6.992;2024-02-21T08:29:19;9.70;;;3.92;;
19842;SDS011;10082;51.038;6.992;2024-02-21T08:31:46;9.30;;;4.50;;
19842;SDS011;10082;51.038;6.992;2024-02-21T08:34:12;8.15;;;4.55;;
19842;SDS011;10082;51.038;6.992;2024-02-21T08:36:40;7.07;;;4.63;;
19842;SDS011;10082;51.038;6.992;2024-02-21T08:39:07;7.45;;;3.95;;
19842;SDS011;10082;51.038;6.992;2024-02-21T08:41:36;7.60;;;3.65;;
19842;SDS011;10082;51.038;6.992;2024-02-21T08:44:04;7.53;;;4.13;;
19842;SDS011;10082;51.038;6.992;2024-02-21T08:46:31;6.22;;;4.10;;
19842;SDS011;10082;51.038;6.992;2024-02-21T08:48:58;6.80;;;3.97;;
19842;SDS011;10082;51.038;6.992;2024-02-21T08:51:25;6.22;;;3.50;;
19842;SDS011;10082;51.038;6.992;2024-02-21T08:53:52;7.20;;;4.07;;
19842;SDS011;10082;51.038;6.992;2024-02-21T08:56:19;7.80;;;3.60;;
19842;SDS011;10082;51.038;6.992;2024-02-21T08:58:47;9.98;;;4.15;;
19842;SDS011;10082;51.038;6.992;2024-02-21T09:01:18;7.63;;;4.07;;
19842;SDS011;10082;51.038;6.992;2024-02-21T09:03:46;5.78;;;3.63;;
19842;SDS011;10082;51.038;6.992;2024-02-21T09:06:13;7.00;;;3.90;;
19842;SDS011;10082;51.038;6.992;2024-02-21T09:08:40;9.63;;;3.95;;
19842;SDS011;10082;51.038;6.992;2024-02-21T09:11:08;8.05;;;4.25;;
19842;SDS011;10082;51.038;6.992;2024-02-21T09:13:35;5.28;;;3.53;;
19842;SDS011;10082;51.038;6.992;2024-02-21T09:16:04;6.60;;;3.70;;
19842;SDS011;10082;51.038;6.992;2024-02-21T09:18:31;4.80;;;3.55;;
19842;SDS011;10082;51.038;6.992;2024-02-21T09:20:58;5.78;;;3.70;;
19842;SDS011;10082;51.038;6.992;2024-02-21T09:23:26;7.50;;;3.60;;
19842;SDS011;10082;51.038;6.992;2024-02-21T09:25:53;6.82;;;4.15;;
19842;SDS011;10082;51.038;6.992;2024-02-21T09:28:20;10.35;;;4.25;;
19842;SDS011;10082;51.038;6.992;2024-02-21T09:30:47;11.05;;;4.88;;
19842;SDS011;10082;51.038;6.992;2024-02-21T09:33:16;8.52;;;4.10;;
19842;SDS011;10082;51.038;6.992;2024-02-21T09:35:43;9.82;;;4.78;;
19842;SDS011;10082;51.038;6.992;2024-02-21T09:38:10;6.25;;;3.60;;
19842;SDS011;10082;51.038;6.992;2024-02-21T09:40:37;6.93;;;3.30;;
19842;SDS011;10082;51.038;6.992;2024-02-21T09:43:07;8.05;;;3.55;;
19842;SDS011;10082;51.038;6.992;2024-02-21T09:45:44;8.07;;;3.97;;
19842;SDS011;10082;51.038;6.992;2024-02-21T09:48:29;7.00;;;3.72;;
19842;SDS011;10082;51.038;6.992;2024-02-21T09:51:04;8.32;;;4.13;;
19842;SDS011;10082;51.038;6.992;2024-02-21T09:53:33;11.60;;;4.13;;
19842;SDS011;10082;51.038;6.992;2024-02-21T09:56:04;6.32;;;4.20;;
19842;SDS011;10082;51.038;6.992;2024-02-21T09:58:34;6.40;;;3.65;;
19842;SDS011;10082;51.038;6.992;2024-02-21T10:01:01;4.93;;;3.15;;
19842;SDS011;10082;51.038;6.992;2024-02-21T10:03:31;7.47;;;3.10;;
19842;SDS011;10082;51.038;6.992;2024-02-21T10:06:07;6.30;;;3.85;;
19842;SDS011;10082;51.038;6.992;2024-02-21T10:08:34;5.90;;;3.10;;
19842;SDS011;10082;51.038;6.992;2024-02-21T10:11:01;6.60;;;3.35;;
19842;SDS011;10082;51.038;6.992;2024-02-21T10:13:29;5.53;;;2.90;;
19842;SDS011;10082;51.038;6.992;2024-02-21T10:16:03;7.00;;;3.15;;
19842;SDS011;10082;51.038;6.992;2024-02-21T10:18:32;8.18;;;3.13;;
19842;SDS011;10082;51.038;6.992;2024-02-21T10:21:00;6.03;;;3.35;;
19842;SDS011;10082;51.038;6.992;2024-02-21T10:23:28;6.85;;;3.17;;
19842;SDS011;10082;51.038;6.992;2024-02-21T10:26:04;5.88;;;3.10;;
19842;SDS011;10082;51.038;6.992;2024-02-21T10:28:32;6.30;;;3.25;;
19842;SDS011;10082;51.038;6.992;2024-02-21T10:30:59;6.75;;;3.88;;
19842;SDS011;10082;51.038;6.992;2024-02-21T10:33:26;8.73;;;3.50;;
19842;SDS011;10082;51.038;6.992;2024-02-21T10:35:55;4.40;;;3.00;;
19842;SDS011;10082;51.038;6.992;2024-02-21T10:38:33;4.85;;;2.97;;
19842;SDS011;10082;51.038;6.992;2024-02-21T10:41:00;6.97;;;3.67;;
19842;SDS011;10082;51.038;6.992;2024-02-21T10:43:29;7.10;;;3.17;;
19842;SDS011;10082;51.038;6.992;2024-02-21T10:46:02;8.05;;;3.28;;
19842;SDS011;10082;51.038;6.992;2024-02-21T10:48:33;4.75;;;2.85;;
19842;SDS011;10082;51.038;6.992;2024-02-21T10:51:16;6.15;;;2.97;;
19842;SDS011;10082;51.038;6.992;2024-02-21T10:53:45;6.55;;;3.28;;
19842;SDS011;10082;51.038;6.992;2024-02-21T10:56:26;5.45;;;2.97;;
19842;SDS011;10082;51.038;6.992;2024-02-21T10:58:56;6.15;;;2.85;;
19842;SDS011;10082;51.038;6.992;2024-02-21T11:01:24;4.82;;;2.85;;
19842;SDS011;10082;51.038;6.992;2024-02-21T11:03:55;6.88;;;2.85;;
19842;SDS011;10082;51.038;6.992;2024-02-21T11:06:25;5.57;;;2.60;;
19842;SDS011;10082;51.038;6.992;2024-02-21T11:09:01;5.82;;;2.65;;
19842;SDS011;10082;51.038;6.992;2024-02-21T11:11:29;5.10;;;2.42;;
19842;SDS011;10082;51.038;6.992;2024-02-21T11:14:05;4.68;;;2.70;;
19842;SDS011;10082;51.038;6.992;2024-02-21T11:16:37;6.30;;;2.72;;
19842;SDS011;10082;51.038;6.992;2024-02-21T11:19:05;5.35;;;2.75;;
19842;SDS011;10082;51.038;6.992;2024-02-21T11:21:35;6.43;;;3.38;;
19842;SDS011;10082;51.038;6.992;2024-02-21T11:24:03;5.90;;;3.03;;
19842;SDS011;10082;51.038;6.992;2024-02-21T11:26:32;4.82;;;2.80;;
19842;SDS011;10082;51.038;6.992;2024-02-21T11:28:59;4.03;;;2.70;;
19842;SDS011;10082;51.038;6.992;2024-02-21T11:31:37;5.03;;;2.80;;
19842;SDS011;10082;51.038;6.992;2024-02-21T11:34:08;4.30;;;2.72;;
19842;SDS011;10082;51.038;6.992;2024-02-21T11:36:39;4.03;;;2.92;;
19842;SDS011;10082;51.038;6.992;2024-02-21T11:39:17;8.55;;;2.92;;
19842;SDS011;10082;51.038;6.992;2024-02-21T11:41:46;6.38;;;2.80;;
19842;SDS011;10082;51.038;6.992;2024-02-21T11:44:13;5.07;;;2.58;;
19842;SDS011;10082;51.038;6.992;2024-02-21T11:46:40;6.18;;;2.65;;
19842;SDS011;10082;51.038;6.992;2024-02-21T11:49:07;6.35;;;2.50;;
19842;SDS011;10082;51.038;6.992;2024-02-21T11:51:34;6.22;;;2.83;;
19842;SDS011;10082;51.038;6.992;2024-02-21T11:54:03;5.55;;;2.65;;
19842;SDS011;10082;51.038;6.992;2024-02-21T11:56:30;7.28;;;2.83;;
19842;SDS011;10082;51.038;6.992;2024-02-21T11:58:58;4.38;;;2.63;;
19842;SDS011;10082;51.038;6.992;2024-02-21T12:01:25;5.35;;;2.58;;
19842;SDS011;10082;51.038;6.992;2024-02-21T12:03:52;6.80;;;2.42;;
19842;SDS011;10082;51.038;6.992;2024-02-21T12:06:21;6.07;;;2.28;;
19842;SDS011;10082;51.038;6.992;2024-02-21T12:08:57;6.55;;;2.90;;
19842;SDS011;10082;51.038;6.992;2024-02-21T12:11:26;5.32;;;2.53;;
19842;SDS011;10082;51.038;6.992;2024-02-21T12:13:59;5.60;;;3.05;;
19842;SDS011;10082;51.038;6.992;2024-02-21T12:16:28;5.28;;;2.55;;
19842;SDS011;10082;51.038;6.992;2024-02-21T12:18:56;6.18;;;2.67;;
19842;SDS011;10082;51.038;6.992;2024-02-21T12:21:26;4.45;;;2.33;;
19842;SDS011;10082;51.038;6.992;2024-02-21T12:23:57;6.18;;;2.47;;
19842;SDS011;10082;51.038;6.992;2024-02-21T12:26:27;4.22;;;2.30;;
19842;SDS011;10082;51.038;6.992;2024-02-21T12:28:55;3.83;;;2.50;;
19842;SDS011;10082;51.038;6.992;2024-02-21T12:31:22;6.78;;;2.72;;
19842;SDS011;10082;51.038;6.992;2024-02-21T12:33:49;4.95;;;2.47;;
19842;SDS011;10082;51.038;6.992;2024-02-21T12:36:18;4.90;;;2.70;;
19842;SDS011;10082;51.038;6.992;2024-02-21T12:38:45;4.72;;;2.50;;
19842;SDS011;10082;51.038;6.992;2024-02-21T12:41:14;5.00;;;2.58;;
19842;SDS011;10082;51.038;6.992;2024-02-21T12:43:42;7.90;;;2.83;;
19842;SDS011;10082;51.038;6.992;2024-02-21T12:46:09;3.65;;;2.30;;
19842;SDS011;10082;51.038;6.992;2024-02-21T12:48:36;6.85;;;2.67;;
19842;SDS011;10082;51.038;6.992;2024-02-21T12:51:05;5.15;;;2.50;;
19842;SDS011;10082;51.038;6.992;2024-02-21T12:53:32;4.95;;;2.60;;
19842;SDS011;10082;51.038;6.992;2024-02-21T12:55:59;5.65;;;2.42;;
19842;SDS011;10082;51.038;6.992;2024-02-21T12:58:26;4.75;;;2.55;;
19842;SDS011;10082;51.038;6.992;2024-02-21T13:00:58;7.38;;;2.50;;
19842;SDS011;10082;51.038;6.992;2024-02-21T13:03:25;5.90;;;2.42;;
19842;SDS011;10082;51.038;6.992;2024-02-21T13:05:52;4.43;;;2.53;;
19842;SDS011;10082;51.038;6.992;2024-02-21T13:08:19;5.15;;;2.10;;
19842;SDS011;10082;51.038;6.992;2024-02-21T13:10:47;5.40;;;2.58;;
19842;SDS011;10082;51.038;6.992;2024-02-21T13:13:15;3.60;;;2.25;;
19842;SDS011;10082;51.038;6.992;2024-02-21T13:15:42;4.50;;;2.30;;
19842;SDS011;10082;51.038;6.992;2024-02-21T13:18:11;5.13;;;2.50;;
19842;SDS011;10082;51.038;6.992;2024-02-21T13:20:38;5.13;;;2.50;;
19842;SDS011;10082;51.038;6.992;2024-02-21T13:23:05;6.43;;;2.45;;
19842;SDS011;10082;51.038;6.992;2024-02-21T13:25:32;3.97;;;2.30;;
19842;SDS011;10082;51.038;6.992;2024-02-21T13:27:59;3.38;;;2.10;;
19842;SDS011;10082;51.038;6.992;2024-02-21T13:30:27;4.57;;;2.45;;
19842;SDS011;10082;51.038;6.992;2024-02-21T13:32:54;6.35;;;2.60;;
19842;SDS011;10082;51.038;6.992;2024-02-21T13:35:24;4.68;;;2.20;;
19842;SDS011;10082;51.038;6.992;2024-02-21T13:37:50;4.65;;;2.35;;
19842;SDS011;10082;51.038;6.992;2024-02-21T13:40:18;4.90;;;2.17;;
19842;SDS011;10082;51.038;6.992;2024-02-21T13:42:45;5.30;;;2.53;;
19842;SDS011;10082;51.038;6.992;2024-02-21T13:45:11;6.88;;;2.50;;
19842;SDS011;10082;51.038;6.992;2024-02-21T13:47:40;6.28;;;2.25;;
19842;SDS011;10082;51.038;6.992;2024-02-21T13:50:07;5.35;;;2.17;;
19842;SDS011;10082;51.038;6.992;2024-02-21T13:52:37;5.97;;;2.70;;
19842;SDS011;10082;51.038;6.992;2024-02-21T13:55:04;4.22;;;2.33;;
19842;SDS011;10082;51.038;6.992;2024-02-21T13:57:33;3.95;;;2.33;;
19842;SDS011;10082;51.038;6.992;2024-02-21T14:00:00;4.15;;;2.47;;
19842;SDS011;10082;51.038;6.992;2024-02-21T14:02:37;3.03;;;2.28;;
19842;SDS011;10082;51.038;6.992;2024-02-21T14:05:04;6.90;;;2.78;;
19842;SDS011;10082;51.038;6.992;2024-02-21T14:07:32;5.95;;;2.38;;
19842;SDS011;10082;51.038;6.992;2024-02-21T14:10:03;5.30;;;2.20;;
19842;SDS011;10082;51.038;6.992;2024-02-21T14:12:31;4.63;;;2.17;;
19842;SDS011;10082;51.038;6.992;2024-02-21T14:14:58;4.43;;;2.50;;
19842;SDS011;10082;51.038;6.992;2024-02-21T14:17:25;3.85;;;2.22;;
19842;SDS011;10082;51.038;6.992;2024-02-21T14:19:52;4.78;;;2.55;;
19842;SDS011;10082;51.038;6.992;2024-02-21T14:22:20;3.88;;;2.33;;
19842;SDS011;10082;51.038;6.992;2024-02-21T14:24:47;3.10;;;2.05;;
19842;SDS011;10082;51.038;6.992;2024-02-21T14:27:15;4.00;;;2.40;;
19842;SDS011;10082;51.038;6.992;2024-02-21T14:29:42;3.35;;;2.35;;
19842;SDS011;10082;51.038;6.992;2024-02-21T14:32:09;6.43;;;2.35;;
19842;SDS011;10082;51.038;6.992;2024-02-21T14:34:39;7.32;;;2.63;;
19842;SDS011;10082;51.038;6.992;2024-02-21T14:37:06;4.88;;;2.55;;
19842;SDS011;10082;51.038;6.992;2024-02-21T14:39:33;5.22;;;2.53;;
19842;SDS011;10082;51.038;6.992;2024-02-21T14:42:01;4.50;;;2.45;;
19842;SDS011;10082;51.038;6.992;2024-02-21T14:44:30;4.90;;;2.47;;
19842;SDS011;10082;51.038;6.992;2024-02-21T14:46:57;4.50;;;2.30;;
19842;SDS011;10082;51.038;6.992;2024-02-21T14:49:24;4.93;;;2.30;;
19842;SDS011;10082;51.038;6.992;2024-02-21T14:51:53;4.82;;;2.47;;